sensor_id;sensor_type;location;lat;lon;timestamp;pressure;altitude;pressure_sealevel;temperature
20848;BMP180;10584;50.854;12.902;2023-08-31T00:02:15;97314.00;;;14.20
20848;BMP180;10584;50.854;12.902;2023-08-31T00:07:43;97320.00;;;14.10
20848;BMP180;10584;50.854;12.902;2023-08-31T00:13:09;97318.00;;;14.10
20848;BMP180;10584;50.854;12.902;2023-08-31T00:18:47;97302.00;;;14.10
20848;BMP180;10584;50.854;12.902;2023-08-31T00:24:19;97276.00;;;14.10
20848;BMP180;10584;50.854;12.902;2023-08-31T00:29:47;97259.00;;;14.10
20848;BMP180;10584;50.854;12.902;2023-08-31T00:35:12;97261.00;;;14.00
20848;BMP180;10584;50.854;12.902;2023-08-31T00:40:33;97292.00;;;13.90
20848;BMP180;10584;50.854;12.902;2023-08-31T00:46:07;97282.00;;;13.80
20848;BMP180;10584;50.854;12.902;2023-08-31T00:51:55;97296.00;;;13.70
20848;BMP180;10584;50.854;12.902;2023-08-31T00:57:44;97286.00;;;13.70
20848;BMP180;10584;50.854;12.902;2023-08-31T01:09:29;97287.00;;;13.50
20848;BMP180;10584;50.854;12.902;2023-08-31T01:15:13;97286.00;;;13.50
20848;BMP180;10584;50.854;12.902;2023-08-31T01:27:22;97290.00;;;13.30
20848;BMP180;10584;50.854;12.902;2023-08-31T01:33:06;97298.00;;;13.30
20848;BMP180;10584;50.854;12.902;2023-08-31T01:38:45;97287.00;;;13.20
20848;BMP180;10584;50.854;12.902;2023-08-31T01:44:22;97287.00;;;13.20
20848;BMP180;10584;50.854;12.902;2023-08-31T01:49:44;97272.00;;;13.20
20848;BMP180;10584;50.854;12.902;2023-08-31T01:55:06;97295.00;;;13.10
20848;BMP180;10584;50.854;12.902;2023-08-31T02:00:28;97302.00;;;13.10
20848;BMP180;10584;50.854;12.902;2023-08-31T02:05:55;97320.00;;;13.00
20848;BMP180;10584;50.854;12.902;2023-08-31T02:11:46;97332.00;;;12.90
20848;BMP180;10584;50.854;12.902;2023-08-31T02:17:34;97337.00;;;12.90
20848;BMP180;10584;50.854;12.902;2023-08-31T02:23:21;97335.00;;;12.80
20848;BMP180;10584;50.854;12.902;2023-08-31T02:28:57;97338.00;;;12.80
20848;BMP180;10584;50.854;12.902;2023-08-31T02:34:27;97339.00;;;12.80
20848;BMP180;10584;50.854;12.902;2023-08-31T02:39:53;97345.00;;;12.70
20848;BMP180;10584;50.854;12.902;2023-08-31T02:45:14;97345.00;;;12.70
20848;BMP180;10584;50.854;12.902;2023-08-31T02:50:38;97354.00;;;12.60
20848;BMP180;10584;50.854;12.902;2023-08-31T02:56:03;97354.00;;;12.50
20848;BMP180;10584;50.854;12.902;2023-08-31T03:01:57;97362.00;;;12.50
20848;BMP180;10584;50.854;12.902;2023-08-31T03:07:39;97366.00;;;12.50
20848;BMP180;10584;50.854;12.902;2023-08-31T03:13:11;97369.00;;;12.40
20848;BMP180;10584;50.854;12.902;2023-08-31T03:18:55;97368.00;;;12.50
20848;BMP180;10584;50.854;12.902;2023-08-31T03:24:22;97367.00;;;12.40
20848;BMP180;10584;50.854;12.902;2023-08-31T03:29:50;97353.00;;;12.40
20848;BMP180;10584;50.854;12.902;2023-08-31T03:35:12;97367.00;;;12.50
20848;BMP180;10584;50.854;12.902;2023-08-31T03:40:33;97372.00;;;12.40
20848;BMP180;10584;50.854;12.902;2023-08-31T03:45:59;97373.00;;;12.40
20848;BMP180;10584;50.854;12.902;2023-08-31T03:52:00;97376.00;;;12.40
20848;BMP180;10584;50.854;12.902;2023-08-31T03:57:50;97381.00;;;12.30
20848;BMP180;10584;50.854;12.902;2023-08-31T04:03:38;97382.00;;;12.30
20848;BMP180;10584;50.854;12.902;2023-08-31T04:09:03;97385.00;;;12.30
20848;BMP180;10584;50.854;12.902;2023-08-31T04:14:36;97385.00;;;12.20
20848;BMP180;10584;50.854;12.902;2023-08-31T04:19:58;97385.00;;;12.20
20848;BMP180;10584;50.854;12.902;2023-08-31T04:25:19;97396.00;;;12.00
20848;BMP180;10584;50.854;12.902;2023-08-31T04:30:41;97403.00;;;12.00
20848;BMP180;10584;50.854;12.902;2023-08-31T04:36:24;97409.00;;;12.10
20848;BMP180;10584;50.854;12.902;2023-08-31T04:42:07;97414.00;;;12.10
20848;BMP180;10584;50.854;12.902;2023-08-31T04:47:52;97421.00;;;12.20
20848;BMP180;10584;50.854;12.902;2023-08-31T04:53:30;97425.00;;;12.20
20848;BMP180;10584;50.854;12.902;2023-08-31T04:59:07;97435.00;;;12.20
20848;BMP180;10584;50.854;12.902;2023-08-31T05:04:41;97449.00;;;12.30
20848;BMP180;10584;50.854;12.902;2023-08-31T05:10:23;97452.00;;;12.30
20848;BMP180;10584;50.854;12.902;2023-08-31T05:15:47;97450.00;;;12.30
20848;BMP180;10584;50.854;12.902;2023-08-31T05:21:27;97459.00;;;12.50
20848;BMP180;10584;50.854;12.902;2023-08-31T05:26:53;97468.00;;;12.50
20848;BMP180;10584;50.854;12.902;2023-08-31T05:32:34;97470.00;;;12.50
20848;BMP180;10584;50.854;12.902;2023-08-31T05:38:17;97478.00;;;12.60
20848;BMP180;10584;50.854;12.902;2023-08-31T05:43:57;97482.00;;;12.60
20848;BMP180;10584;50.854;12.902;2023-08-31T05:49:33;97495.00;;;12.80
20848;BMP180;10584;50.854;12.902;2023-08-31T05:54:55;97499.00;;;12.80
20848;BMP180;10584;50.854;12.902;2023-08-31T06:00:18;97501.00;;;12.90
20848;BMP180;10584;50.854;12.902;2023-08-31T06:05:42;97501.00;;;13.00
20848;BMP180;10584;50.854;12.902;2023-08-31T06:11:30;97509.00;;;13.10
20848;BMP180;10584;50.854;12.902;2023-08-31T06:17:15;97510.00;;;13.10
20848;BMP180;10584;50.854;12.902;2023-08-31T06:23:02;97527.00;;;13.20
20848;BMP180;10584;50.854;12.902;2023-08-31T06:28:35;97521.00;;;13.10
20848;BMP180;10584;50.854;12.902;2023-08-31T06:34:02;97531.00;;;13.20
20848;BMP180;10584;50.854;12.902;2023-08-31T06:39:31;97530.00;;;13.10
20848;BMP180;10584;50.854;12.902;2023-08-31T06:44:58;97535.00;;;13.30
20848;BMP180;10584;50.854;12.902;2023-08-31T06:50:20;97533.00;;;13.50
20848;BMP180;10584;50.854;12.902;2023-08-31T06:55:41;97536.00;;;13.80
20848;BMP180;10584;50.854;12.902;2023-08-31T07:01:06;97524.00;;;14.00
20848;BMP180;10584;50.854;12.902;2023-08-31T07:06:42;97532.00;;;14.30
20848;BMP180;10584;50.854;12.902;2023-08-31T07:12:23;97533.00;;;14.50
20848;BMP180;10584;50.854;12.902;2023-08-31T07:17:49;97543.00;;;14.70
20848;BMP180;10584;50.854;12.902;2023-08-31T07:23:32;97541.00;;;14.80
20848;BMP180;10584;50.854;12.902;2023-08-31T07:29:10;97549.00;;;14.70
20848;BMP180;10584;50.854;12.902;2023-08-31T07:34:36;97558.00;;;14.60
20848;BMP180;10584;50.854;12.902;2023-08-31T07:39:58;97564.00;;;14.90
20848;BMP180;10584;50.854;12.902;2023-08-31T07:45:19;97574.00;;;15.00
20848;BMP180;10584;50.854;12.902;2023-08-31T07:50:41;97573.00;;;15.20
20848;BMP180;10584;50.854;12.902;2023-08-31T07:56:16;97577.00;;;14.90
20848;BMP180;10584;50.854;12.902;2023-08-31T08:01:56;97576.00;;;15.10
20848;BMP180;10584;50.854;12.902;2023-08-31T08:07:37;97588.00;;;15.00
20848;BMP180;10584;50.854;12.902;2023-08-31T08:13:05;97601.00;;;15.10
20848;BMP180;10584;50.854;12.902;2023-08-31T08:18:31;97603.00;;;15.00
20848;BMP180;10584;50.854;12.902;2023-08-31T08:24:18;97598.00;;;14.90
20848;BMP180;10584;50.854;12.902;2023-08-31T08:29:46;97595.00;;;14.90
20848;BMP180;10584;50.854;12.902;2023-08-31T08:35:08;97594.00;;;15.20
20848;BMP180;10584;50.854;12.902;2023-08-31T08:40:31;97602.00;;;15.40
20848;BMP180;10584;50.854;12.902;2023-08-31T08:46:09;97607.00;;;15.90
20848;BMP180;10584;50.854;12.902;2023-08-31T08:51:55;97594.00;;;15.80
20848;BMP180;10584;50.854;12.902;2023-08-31T08:57:47;97601.00;;;16.30
20848;BMP180;10584;50.854;12.902;2023-08-31T09:03:35;97601.00;;;16.50
20848;BMP180;10584;50.854;12.902;2023-08-31T09:08:57;97608.00;;;16.40
20848;BMP180;10584;50.854;12.902;2023-08-31T09:14:21;97619.00;;;16.80
20848;BMP180;10584;50.854;12.902;2023-08-31T09:19:59;97611.00;;;17.10
20848;BMP180;10584;50.854;12.902;2023-08-31T09:25:22;97611.00;;;17.10
20848;BMP180;10584;50.854;12.902;2023-08-31T09:30:45;97623.00;;;17.30
20848;BMP180;10584;50.854;12.902;2023-08-31T09:36:26;97610.00;;;17.60
20848;BMP180;10584;50.854;12.902;2023-08-31T09:41:58;97614.00;;;17.70
20848;BMP180;10584;50.854;12.902;2023-08-31T09:47:48;97612.00;;;17.60
20848;BMP180;10584;50.854;12.902;2023-08-31T09:53:35;97597.00;;;17.70
20848;BMP180;10584;50.854;12.902;2023-08-31T09:59:04;97604.00;;;17.80
20848;BMP180;10584;50.854;12.902;2023-08-31T10:04:35;97617.00;;;17.40
20848;BMP180;10584;50.854;12.902;2023-08-31T10:10:23;97618.00;;;17.20
20848;BMP180;10584;50.854;12.902;2023-08-31T10:16:17;97621.00;;;17.20
20848;BMP180;10584;50.854;12.902;2023-08-31T10:21:59;97644.00;;;16.80
20848;BMP180;10584;50.854;12.902;2023-08-31T10:27:24;97647.00;;;16.40
20848;BMP180;10584;50.854;12.902;2023-08-31T10:44:32;97646.00;;;15.10
20848;BMP180;10584;50.854;12.902;2023-08-31T10:49:55;97626.00;;;15.10
20848;BMP180;10584;50.854;12.902;2023-08-31T10:55:22;97642.00;;;15.50
20848;BMP180;10584;50.854;12.902;2023-08-31T11:00:51;97629.00;;;16.10
20848;BMP180;10584;50.854;12.902;2023-08-31T11:06:26;97628.00;;;16.80
20848;BMP180;10584;50.854;12.902;2023-08-31T11:12:15;97624.00;;;17.40
20848;BMP180;10584;50.854;12.902;2023-08-31T11:17:40;97606.00;;;17.90
20848;BMP180;10584;50.854;12.902;2023-08-31T11:23:06;97609.00;;;17.90
20848;BMP180;10584;50.854;12.902;2023-08-31T11:28:43;97619.00;;;18.10
20848;BMP180;10584;50.854;12.902;2023-08-31T11:34:25;97616.00;;;18.50
20848;BMP180;10584;50.854;12.902;2023-08-31T11:39:53;97610.00;;;18.20
20848;BMP180;10584;50.854;12.902;2023-08-31T11:45:15;97644.00;;;17.80
20848;BMP180;10584;50.854;12.902;2023-08-31T11:50:37;97638.00;;;17.10
20848;BMP180;10584;50.854;12.902;2023-08-31T11:56:18;97636.00;;;16.80
20848;BMP180;10584;50.854;12.902;2023-08-31T12:01:59;97650.00;;;16.60
20848;BMP180;10584;50.854;12.902;2023-08-31T12:07:42;97643.00;;;16.50
20848;BMP180;10584;50.854;12.902;2023-08-31T12:13:13;97633.00;;;16.90
20848;BMP180;10584;50.854;12.902;2023-08-31T12:18:58;97628.00;;;17.40
20848;BMP180;10584;50.854;12.902;2023-08-31T12:24:38;97624.00;;;17.90
20848;BMP180;10584;50.854;12.902;2023-08-31T12:30:01;97620.00;;;18.40
20848;BMP180;10584;50.854;12.902;2023-08-31T12:35:23;97617.00;;;18.60
20848;BMP180;10584;50.854;12.902;2023-08-31T12:40:47;97622.00;;;18.90
20848;BMP180;10584;50.854;12.902;2023-08-31T12:46:33;97634.00;;;19.10
20848;BMP180;10584;50.854;12.902;2023-08-31T12:52:12;97633.00;;;19.10
20848;BMP180;10584;50.854;12.902;2023-08-31T12:57:50;97634.00;;;18.90
20848;BMP180;10584;50.854;12.902;2023-08-31T13:03:25;97626.00;;;19.30
20848;BMP180;10584;50.854;12.902;2023-08-31T13:09:32;97631.00;;;19.50
20848;BMP180;10584;50.854;12.902;2023-08-31T13:15:13;97635.00;;;19.10
20848;BMP180;10584;50.854;12.902;2023-08-31T13:20:34;97644.00;;;18.90
20848;BMP180;10584;50.854;12.902;2023-08-31T13:26:00;97644.00;;;18.60
20848;BMP180;10584;50.854;12.902;2023-08-31T13:31:47;97643.00;;;18.10
20848;BMP180;10584;50.854;12.902;2023-08-31T13:37:27;97641.00;;;18.00
20848;BMP180;10584;50.854;12.902;2023-08-31T13:43:05;97643.00;;;17.90
20848;BMP180;10584;50.854;12.902;2023-08-31T13:48:33;97653.00;;;17.80
20848;BMP180;10584;50.854;12.902;2023-08-31T13:54:11;97652.00;;;17.80
20848;BMP180;10584;50.854;12.902;2023-08-31T13:59:37;97659.00;;;17.90
20848;BMP180;10584;50.854;12.902;2023-08-31T14:05:04;97655.00;;;17.80
20848;BMP180;10584;50.854;12.902;2023-08-31T14:10:40;97646.00;;;18.00
20848;BMP180;10584;50.854;12.902;2023-08-31T14:16:17;97652.00;;;18.20
20848;BMP180;10584;50.854;12.902;2023-08-31T14:21:56;97643.00;;;18.80
20848;BMP180;10584;50.854;12.902;2023-08-31T14:27:40;97646.00;;;19.00
20848;BMP180;10584;50.854;12.902;2023-08-31T14:33:26;97645.00;;;19.40
20848;BMP180;10584;50.854;12.902;2023-08-31T14:39:03;97646.00;;;19.70
20848;BMP180;10584;50.854;12.902;2023-08-31T14:44:29;97646.00;;;19.70
20848;BMP180;10584;50.854;12.902;2023-08-31T14:49:52;97652.00;;;19.70
20848;BMP180;10584;50.854;12.902;2023-08-31T14:55:14;97651.00;;;19.50
20848;BMP180;10584;50.854;12.902;2023-08-31T15:00:35;97652.00;;;19.00
20848;BMP180;10584;50.854;12.902;2023-08-31T15:06:01;97668.00;;;18.80
20848;BMP180;10584;50.854;12.902;2023-08-31T15:11:36;97670.00;;;18.60
20848;BMP180;10584;50.854;12.902;2023-08-31T15:17:09;97680.00;;;18.20
20848;BMP180;10584;50.854;12.902;2023-08-31T15:22:53;97685.00;;;17.70
20848;BMP180;10584;50.854;12.902;2023-08-31T15:28:44;97702.00;;;17.60
20848;BMP180;10584;50.854;12.902;2023-08-31T15:34:21;97695.00;;;18.00
20848;BMP180;10584;50.854;12.902;2023-08-31T15:39:47;97703.00;;;18.50
20848;BMP180;10584;50.854;12.902;2023-08-31T15:45:09;97703.00;;;18.80
20848;BMP180;10584;50.854;12.902;2023-08-31T15:50:31;97709.00;;;19.00
20848;BMP180;10584;50.854;12.902;2023-08-31T15:55:59;97713.00;;;18.50
20848;BMP180;10584;50.854;12.902;2023-08-31T16:02:02;97720.00;;;18.60
20848;BMP180;10584;50.854;12.902;2023-08-31T16:07:43;97727.00;;;18.60
20848;BMP180;10584;50.854;12.902;2023-08-31T16:13:17;97726.00;;;18.60
20848;BMP180;10584;50.854;12.902;2023-08-31T16:18:44;97734.00;;;18.50
20848;BMP180;10584;50.854;12.902;2023-08-31T16:24:18;97742.00;;;18.30
20848;BMP180;10584;50.854;12.902;2023-08-31T16:29:44;97734.00;;;18.00
20848;BMP180;10584;50.854;12.902;2023-08-31T16:35:13;97734.00;;;17.70
20848;BMP180;10584;50.854;12.902;2023-08-31T16:40:35;97735.00;;;17.50
20848;BMP180;10584;50.854;12.902;2023-08-31T16:46:05;97739.00;;;17.50
20848;BMP180;10584;50.854;12.902;2023-08-31T16:51:30;97743.00;;;17.20
20848;BMP180;10584;50.854;12.902;2023-08-31T16:57:18;97736.00;;;16.90
20848;BMP180;10584;50.854;12.902;2023-08-31T17:02:51;97746.00;;;16.90
20848;BMP180;10584;50.854;12.902;2023-08-31T17:08:28;97737.00;;;16.60
20848;BMP180;10584;50.854;12.902;2023-08-31T17:13:53;97748.00;;;16.20
20848;BMP180;10584;50.854;12.902;2023-08-31T17:19:34;97743.00;;;16.00
20848;BMP180;10584;50.854;12.902;2023-08-31T17:24:58;97753.00;;;16.10
20848;BMP180;10584;50.854;12.902;2023-08-31T17:30:20;97754.00;;;16.00
20848;BMP180;10584;50.854;12.902;2023-08-31T17:35:42;97750.00;;;15.90
20848;BMP180;10584;50.854;12.902;2023-08-31T17:41:27;97752.00;;;15.80
20848;BMP180;10584;50.854;12.902;2023-08-31T17:46:54;97751.00;;;15.90
20848;BMP180;10584;50.854;12.902;2023-08-31T17:52:22;97753.00;;;15.80
20848;BMP180;10584;50.854;12.902;2023-08-31T17:58:05;97756.00;;;15.70
20848;BMP180;10584;50.854;12.902;2023-08-31T18:03:44;97766.00;;;15.50
20848;BMP180;10584;50.854;12.902;2023-08-31T18:09:16;97769.00;;;15.40
20848;BMP180;10584;50.854;12.902;2023-08-31T18:14:38;97773.00;;;15.30
20848;BMP180;10584;50.854;12.902;2023-08-31T18:20:02;97772.00;;;15.40
20848;BMP180;10584;50.854;12.902;2023-08-31T18:25:24;97777.00;;;15.30
20848;BMP180;10584;50.854;12.902;2023-08-31T18:31:01;97788.00;;;15.20
20848;BMP180;10584;50.854;12.902;2023-08-31T18:36:47;97797.00;;;14.90
20848;BMP180;10584;50.854;12.902;2023-08-31T18:42:33;97792.00;;;14.80
20848;BMP180;10584;50.854;12.902;2023-08-31T18:48:24;97802.00;;;14.70
20848;BMP180;10584;50.854;12.902;2023-08-31T18:54:10;97802.00;;;14.50
20848;BMP180;10584;50.854;12.902;2023-08-31T18:59:37;97794.00;;;14.40
20848;BMP180;10584;50.854;12.902;2023-08-31T19:05:07;97803.00;;;14.30
20848;BMP180;10584;50.854;12.902;2023-08-31T19:10:47;97803.00;;;14.20
20848;BMP180;10584;50.854;12.902;2023-08-31T19:16:19;97807.00;;;14.10
20848;BMP180;10584;50.854;12.902;2023-08-31T19:21:48;97816.00;;;13.90
20848;BMP180;10584;50.854;12.902;2023-08-31T19:27:22;97813.00;;;13.90
20848;BMP180;10584;50.854;12.902;2023-08-31T19:32:59;97821.00;;;13.80
20848;BMP180;10584;50.854;12.902;2023-08-31T19:38:35;97831.00;;;13.80
20848;BMP180;10584;50.854;12.902;2023-08-31T19:44:15;97836.00;;;13.60
20848;BMP180;10584;50.854;12.902;2023-08-31T19:49:43;97828.00;;;13.60
20848;BMP180;10584;50.854;12.902;2023-08-31T19:55:11;97834.00;;;13.60
20848;BMP180;10584;50.854;12.902;2023-08-31T20:00:32;97844.00;;;13.50
20848;BMP180;10584;50.854;12.902;2023-08-31T20:05:57;97841.00;;;13.60
20848;BMP180;10584;50.854;12.902;2023-08-31T20:11:28;97844.00;;;13.60
20848;BMP180;10584;50.854;12.902;2023-08-31T20:16:54;97843.00;;;13.60
20848;BMP180;10584;50.854;12.902;2023-08-31T20:22:44;97846.00;;;13.70
20848;BMP180;10584;50.854;12.902;2023-08-31T20:28:13;97844.00;;;13.70
20848;BMP180;10584;50.854;12.902;2023-08-31T20:33:46;97848.00;;;13.80
20848;BMP180;10584;50.854;12.902;2023-08-31T20:39:14;97868.00;;;13.80
20848;BMP180;10584;50.854;12.902;2023-08-31T20:44:43;97931.00;;;13.50
20848;BMP180;10584;50.854;12.902;2023-08-31T20:50:04;97949.00;;;13.10
20848;BMP180;10584;50.854;12.902;2023-08-31T20:55:28;97939.00;;;12.80
20848;BMP180;10584;50.854;12.902;2023-08-31T21:00:50;97944.00;;;12.60
20848;BMP180;10584;50.854;12.902;2023-08-31T21:06:24;97941.00;;;12.60
20848;BMP180;10584;50.854;12.902;2023-08-31T21:12:15;97952.00;;;12.80
20848;BMP180;10584;50.854;12.902;2023-08-31T21:18:01;97941.00;;;12.70
20848;BMP180;10584;50.854;12.902;2023-08-31T21:23:27;97924.00;;;12.70
20848;BMP180;10584;50.854;12.902;2023-08-31T21:29:11;97910.00;;;12.60
20848;BMP180;10584;50.854;12.902;2023-08-31T21:34:39;97916.00;;;12.50
20848;BMP180;10584;50.854;12.902;2023-08-31T21:40:02;97917.00;;;12.50
20848;BMP180;10584;50.854;12.902;2023-08-31T21:45:24;97922.00;;;12.30
20848;BMP180;10584;50.854;12.902;2023-08-31T21:50:46;97912.00;;;12.20
20848;BMP180;10584;50.854;12.902;2023-08-31T21:56:08;97912.00;;;12.20
20848;BMP180;10584;50.854;12.902;2023-08-31T22:01:32;97913.00;;;12.10
20848;BMP180;10584;50.854;12.902;2023-08-31T22:06:54;97916.00;;;12.00
20848;BMP180;10584;50.854;12.902;2023-08-31T22:12:16;97924.00;;;11.90
20848;BMP180;10584;50.854;12.902;2023-08-31T22:17:39;97915.00;;;11.80
20848;BMP180;10584;50.854;12.902;2023-08-31T22:23:00;97925.00;;;11.70
20848;BMP180;10584;50.854;12.902;2023-08-31T22:28:22;97918.00;;;11.70
20848;BMP180;10584;50.854;12.902;2023-08-31T22:33:44;97921.00;;;11.70
20848;BMP180;10584;50.854;12.902;2023-08-31T22:39:05;97918.00;;;11.60
20848;BMP180;10584;50.854;12.902;2023-08-31T22:44:27;97921.00;;;11.60
20848;BMP180;10584;50.854;12.902;2023-08-31T22:49:52;97924.00;;;11.60
20848;BMP180;10584;50.854;12.902;2023-08-31T22:55:13;97928.00;;;11.70
20848;BMP180;10584;50.854;12.902;2023-08-31T23:00:35;97926.00;;;11.70
20848;BMP180;10584;50.854;12.902;2023-08-31T23:05:57;97934.00;;;11.80
20848;BMP180;10584;50.854;12.902;2023-08-31T23:11:19;97928.00;;;11.80
20848;BMP180;10584;50.854;12.902;2023-08-31T23:16:42;97934.00;;;11.80
20848;BMP180;10584;50.854;12.902;2023-08-31T23:22:04;97932.00;;;11.90
20848;BMP180;10584;50.854;12.902;2023-08-31T23:27:25;97928.00;;;11.90
20848;BMP180;10584;50.854;12.902;2023-08-31T23:32:51;97937.00;;;11.90
20848;BMP180;10584;50.854;12.902;2023-08-31T23:38:13;97927.00;;;11.90
20848;BMP180;10584;50.854;12.902;2023-08-31T23:43:35;97923.00;;;11.90
20848;BMP180;10584;50.854;12.902;2023-08-31T23:48:57;97921.00;;;12.00
20848;BMP180;10584;50.854;12.902;2023-08-31T23:54:18;97918.00;;;11.90
20848;BMP180;10584;50.854;12.902;2023-08-31T23:59:40;97917.00;;;11.90
